Latest Weather Observations for Hopetoun North

IDW60801

Issued at 11:02 am WST Friday 19 December 2014 (issued every 30 minutes, with the page automatically refreshed every 10 minutes)

About weather observations | Map of weather stations | Latest weather observations for WA | Other Formats
Station Details ID: 009961 Name: HOPETOUN NORTH Lat: -33.93 Lon: 120.13 Height: 26.0 m
Data from the previous 72 hours. | See also: Recent months at Hopetoun North
Date/Time
WST
Temp
°C
App
Temp
°C
Dew
Point
Rel
Hum
%
Delta-T
°C
Wind Press
QNH
hPa
Press
MSL
hPa
Rain
since 9 am
mm
Dir
 
Spd
km/h
Gust
km/h
Spd
kts
Gust
kts
19/11:00am 23.2 21.2 15.5 62 4.6 SE 20 28 11 15 1017.0 1016.9 0.0
19/10:30am 22.2 19.9 14.6 62 4.5 SE 20 28 11 15 1017.4 1017.3 0.0
19/10:00am 21.9 19.5 14.3 62 4.4 SE 20 28 11 15 1017.6 1017.5 0.0
19/09:30am 22.3 20.2 13.6 58 5.0 SE 17 22 9 12 1017.9 1017.8 0.0
19/09:00am 21.5 19.6 12.9 58 4.9 SE 15 19 8 10 1018.2 1018.1 0.0
19/08:30am 21.0 20.1 12.7 59 4.7 ESE 9 17 5 9 1018.5 1018.4 0.0
19/08:00am 20.6 19.2 12.1 58 4.7 ENE 11 17 6 9 1018.6 1018.5 0.0
19/07:30am 18.4 17.6 11.7 65 3.7 ENE 7 9 4 5 1018.7 1018.6 0.0
19/07:00am 16.3 15.9 12.5 78 2.1 ENE 6 9 3 5 1018.9 1018.8 0.0
19/06:30am 13.6 13.5 12.0 90 0.9 NE 4 6 2 3 1018.9 1018.8 0.0
19/06:00am 11.9 11.7 11.7 99 0.1 NE 4 6 2 3 1018.6 1018.5 0.0
19/05:30am 11.0 10.5 10.8 99 0.1 NE 4 6 2 3 1018.3 1018.2 0.0
19/05:00am 9.9 8.6 9.8 99 0.1 NNE 7 9 4 5 1018.2 1018.1 0.0
19/04:30am 9.7 8.3 9.6 99 0.0 NNE 7 9 4 5 1017.9 1017.8 0.0
19/04:00am 9.8 8.4 9.7 99 0.0 NE 7 7 4 4 1017.7 1017.6 0.0
19/03:30am 10.3 9.0 10.1 99 0.1 NE 7 7 4 4 1017.8 1017.7 0.0
19/03:00am 10.9 9.4 10.7 99 0.1 NE 9 11 5 6 1017.9 1017.8 0.0
19/02:30am 11.6 10.0 11.4 99 0.1 ENE 11 13 6 7 1017.9 1017.8 0.0
19/02:00am 11.7 10.1 11.5 99 0.1 ENE 11 13 6 7 1018.0 1017.9 0.0
19/01:30am 11.5 10.6 11.3 99 0.1 NE 7 9 4 5 1018.3 1018.2 0.0
19/01:00am 11.9 10.7 11.6 98 0.2 NE 9 11 5 6 1018.5 1018.4 0.0
19/12:30am 12.3 10.8 11.8 97 0.3 NE 11 13 6 7 1018.7 1018.6 0.0
19/12:00am 12.6 11.5 12.1 97 0.3 NE 9 11 5 6 1019.0 1018.9 0.0
 
Date/Time
WST
Temp
°C
App
Temp
°C
Dew
Point
Rel
Hum
%
Delta-T
°C
Wind Press
QNH
hPa
Press
MSL
hPa
Rain
since 9 am
mm
Dir
 
Spd
km/h
Gust
km/h
Spd
kts
Gust
kts
18/11:30pm 12.6 11.5 12.1 97 0.3 NE 9 11 5 6 1019.1 1019.0 0.0
18/11:00pm 12.6 11.8 11.8 95 0.4 NNE 7 9 4 5 1019.2 1019.1 0.0
18/10:30pm 13.0 12.5 11.9 93 0.6 NE 6 7 3 4 1019.1 1019.0 0.0
18/10:00pm 13.4 12.7 12.1 92 0.7 NE 7 7 4 4 1019.1 1019.0 0.0
18/09:30pm 14.3 13.3 12.3 88 1.1 NE 9 9 5 5 1019.0 1018.9 0.0
18/09:00pm 15.4 15.0 12.9 85 1.4 ENE 7 11 4 6 1018.9 1018.8 0.0
18/08:30pm 15.7 15.2 12.8 83 1.6 E 7 11 4 6 1018.7 1018.6 0.0
18/08:00pm 16.8 15.7 13.1 79 2.1 E 11 15 6 8 1018.5 1018.4 0.0
18/07:30pm 17.1 15.6 13.2 78 2.2 ESE 13 19 7 10 1018.3 1018.2 0.0
18/07:00pm 17.6 16.1 13.1 75 2.5 ESE 13 19 7 10 1018.2 1018.1 0.0
18/06:30pm 18.3 16.4 13.0 71 3.0 ESE 15 24 8 13 1018.0 1017.9 0.0
18/06:00pm 18.9 16.6 13.1 69 3.3 ESE 17 24 9 13 1017.9 1017.8 0.0
18/05:30pm 19.3 16.7 13.3 68 3.4 ESE 19 28 10 15 1017.7 1017.6 0.0
18/05:00pm 20.3 17.5 13.3 64 4.0 SE 20 28 11 15 1017.6 1017.5 0.0
18/04:30pm 20.0 16.8 13.0 64 4.0 SE 22 30 12 16 1017.5 1017.4 0.0
18/04:00pm 20.2 17.3 12.9 63 4.1 SE 20 30 11 16 1017.7 1017.6 0.0
18/03:30pm 21.1 18.2 12.8 59 4.7 SE 20 28 11 15 1017.7 1017.6 0.0
18/03:00pm 20.9 17.6 12.8 60 4.6 SSE 22 30 12 16 1017.8 1017.7 0.0
18/02:30pm 20.7 17.3 12.4 59 4.7 SE 22 32 12 17 1018.0 1017.9 0.0
18/02:00pm 21.4 18.6 13.1 59 4.7 SE 20 32 11 17 1018.2 1018.1 0.0
18/01:30pm 21.7 18.8 12.8 57 5.1 SSE 20 28 11 15 1018.2 1018.1 0.0
18/01:00pm 20.6 17.1 12.1 58 4.7 SSE 22 28 12 15 1018.2 1018.1 0.0
18/12:30pm 20.6 17.5 12.3 59 4.7 SSE 20 28 11 15 1018.3 1018.2 0.0
18/12:00pm 21.5 18.9 13.2 59 4.7 SSE 19 26 10 14 1018.6 1018.5 0.0
18/11:30am 21.2 18.4 12.6 58 4.9 SSE 19 26 10 14 1018.7 1018.6 0.0
18/11:00am 20.9 18.2 12.8 60 4.6 S 19 24 10 13 1018.8 1018.7 0.0
18/10:30am 20.3 17.1 11.2 56 5.0 S 19 26 10 14 1019.0 1018.9 0.0
18/10:00am 20.2 17.4 11.4 57 4.8 S 17 24 9 13 1018.9 1018.8 0.0
18/09:30am 20.1 17.3 11.3 57 4.8 S 17 22 9 12 1019.0 1018.9 0.0
18/09:00am 20.6 18.5 12.3 59 4.7 S 15 20 8 11 1018.8 1018.7 0.0
18/08:30am 19.6 18.0 11.6 60 4.4 SSE 11 19 6 10 1018.8 1018.7 0.0
18/08:00am 19.9 19.1 11.7 59 4.5 SSW 7 13 4 7 1018.9 1018.8 0.0
18/07:30am 18.8 18.8 12.3 66 3.6 NE 4 7 2 4 1018.8 1018.7 0.0
18/07:00am 17.2 17.6 12.5 74 2.6 N 2 4 1 2 1018.7 1018.6 0.0
18/06:30am 15.0 14.8 11.8 81 1.7 NE 4 4 2 2 1018.3 1018.2 0.0
18/06:00am 13.8 13.3 10.6 81 1.7 NE 4 6 2 3 1017.8 1017.7 0.0
18/05:30am 15.8 15.2 11.8 77 2.2 SSE 6 9 3 5 1017.3 1017.2 0.0
18/05:00am 15.4 14.1 11.4 77 2.1 S 9 11 5 6 1016.9 1016.8 0.0
18/04:30am 15.4 14.1 11.2 76 2.2 SSW 9 11 5 6 1016.5 1016.4 0.0
18/04:00am 15.7 14.8 11.3 75 2.4 SSW 7 13 4 7 1016.4 1016.3 0.0
18/03:30am 15.8 14.0 10.8 72 2.7 S 11 17 6 9 1016.0 1015.9 0.0
18/03:00am 15.6 14.0 11.4 76 2.3 SSW 11 17 6 9 1015.8 1015.7 0.0
18/02:30am 15.6 13.8 11.0 74 2.5 SSW 11 17 6 9 1015.7 1015.6 0.0
18/02:00am 15.7 13.2 11.1 74 2.5 SSW 15 19 8 10 1015.7 1015.6 0.0
18/01:30am 15.7 13.3 11.5 76 2.3 SSW 15 19 8 10 1015.9 1015.8 0.0
18/01:00am 15.8 13.3 11.2 74 2.5 SSW 15 20 8 11 1015.9 1015.8 0.0
18/12:30am 16.0 13.2 11.2 73 2.6 SSW 17 22 9 12 1016.0 1015.9 0.0
18/12:00am 16.2 12.9 10.9 71 2.8 SSW 19 22 10 12 1016.0 1015.9 0.0
 
Date/Time
WST
Temp
°C
App
Temp
°C
Dew
Point
Rel
Hum
%
Delta-T
°C
Wind Press
QNH
hPa
Press
MSL
hPa
Rain
since 9 am
mm
Dir
 
Spd
km/h
Gust
km/h
Spd
kts
Gust
kts
17/11:30pm 16.3 13.5 11.5 73 2.6 SSW 17 24 9 13 1016.1 1016.0 0.0
17/11:00pm 16.3 13.4 11.0 71 2.8 SSW 17 24 9 13 1016.2 1016.1 0.0
17/10:30pm 16.5 13.4 11.6 73 2.7 SSW 19 24 10 13 1016.2 1016.1 0.0
17/10:00pm 16.5 13.5 11.9 74 2.5 SSW 19 24 10 13 1016.0 1015.9 0.0
17/09:30pm 16.6 13.3 11.7 73 2.7 SSW 20 28 11 15 1015.8 1015.7 0.0
17/09:00pm 16.7 12.9 11.0 69 3.1 SSW 22 33 12 18 1015.6 1015.5 0.0
17/08:30pm 16.6 13.5 11.7 73 2.7 SSW 19 30 10 16 1015.3 1015.3 0.0
17/08:00pm 16.7 13.1 11.8 73 2.7 SSW 22 32 12 17 1014.9 1014.9 0.0
17/07:30pm 16.7 13.5 11.2 70 3.0 SSW 19 26 10 14 1014.8 1014.8 0.0
17/07:00pm 16.8 14.0 11.3 70 3.0 SSW 17 26 9 14 1014.4 1014.4 0.0
17/06:30pm 17.6 14.5 12.3 71 2.9 SSW 20 28 11 15 1014.1 1014.1 0.0
17/06:00pm 18.3 14.8 12.1 67 3.4 S 22 32 12 17 1013.8 1013.8 0.0
17/05:30pm 18.5 14.2 12.0 66 3.6 S 26 35 14 19 1013.4 1013.4 0.0
17/05:00pm 19.3 14.9 11.8 62 4.1 SSW 26 35 14 19 1012.9 1012.9 0.0
17/04:30pm 18.7 13.6 11.8 64 3.8 SSW 30 37 16 20 1012.8 1012.8 0.0
17/04:00pm 20.4 15.3 11.9 58 4.7 SSW 30 37 16 20 1012.6 1012.6 0.0
17/03:30pm 19.9 14.9 11.1 57 4.8 SSW 28 37 15 20 1012.5 1012.5 0.0
17/03:00pm 20.9 16.8 12.6 59 4.7 SSW 26 37 14 20 1012.4 1012.4 0.0
17/02:30pm 19.9 15.3 12.2 61 4.3 SSW 28 37 15 20 1012.1 1012.1 0.0
17/02:00pm 20.0 15.5 12.7 63 4.1 S 28 37 15 20 1012.1 1012.1 0.0
17/01:30pm 20.9 16.6 12.1 57 4.9 SSW 26 35 14 19 1012.0 1012.0 0.0
17/01:00pm 20.5 16.5 11.7 57 4.9 S 24 35 13 19 1011.9 1011.9 0.0
17/12:30pm 19.9 16.2 11.4 58 4.7 S 22 33 12 18 1011.9 1011.9 0.0
17/12:00pm 20.3 17.0 12.8 62 4.2 S 22 28 12 15 1011.8 1011.8 0.0
17/11:30am 19.9 17.4 12.2 61 4.3 SSW 17 26 9 14 1011.8 1011.8 0.0
17/11:00am 20.1 17.1 12.1 60 4.5 SSW 19 26 10 14 1011.8 1011.8 0.0
17/10:30am 19.9 17.5 11.4 58 4.7 SSW 15 24 8 13 1011.9 1011.9 0.0
17/10:00am 19.6 17.3 11.6 60 4.4 SSW 15 22 8 12 1012.0 1012.0 0.0
17/09:30am 18.2 15.8 11.5 65 3.7 SW 15 22 8 12 1012.0 1012.0 0.0
17/09:00am 17.9 16.6 11.2 65 3.6 WSW 9 13 5 7 1012.1 1012.1 0.0
17/08:30am 18.0 16.7 10.1 60 4.2 SSW 7 15 4 8 1012.3 1012.3 0.0
17/08:00am 17.8 16.7 9.9 60 4.2 SW 6 13 3 7 1012.4 1012.4 0.0
17/07:30am 17.1 16.5 10.5 65 3.5 NE 4 6 2 3 1012.4 1012.4 0.0
17/07:00am 16.2 15.2 10.3 68 3.1 N 6 7 3 4 1012.4 1012.4 0.0
17/06:30am 15.6 15.6 11.0 74 2.5 N 2 4 1 2 1012.4 1012.4 0.0
17/06:00am 15.0 14.8 10.4 74 2.4 NNW 2 6 1 3 1012.3 1012.3 0.0
17/05:30am 14.8 14.6 10.6 76 2.2 N 2 4 1 2 1011.9 1011.9 0.0
17/05:00am 14.5 13.9 10.5 77 2.1 N 4 4 2 2 1011.5 1011.5 0.0
17/04:30am 14.3 14.1 10.3 77 2.1 NW 2 4 1 2 1011.4 1011.4 0.0
17/04:00am 14.3 14.1 10.3 77 2.1 NW 2 4 1 2 1011.1 1011.1 0.0
17/03:30am 14.2 13.5 10.2 77 2.1 NW 4 6 2 3 1010.9 1010.9 0.0
17/03:00am 13.9 13.2 10.1 78 2.0 NNW 4 4 2 2 1010.6 1010.6 0.0
17/02:30am 13.7 13.5 10.3 80 1.8 NNW 2 4 1 2 1010.6 1010.6 0.0
17/02:00am 13.6 13.7 10.2 80 1.8 CALM 0 0 0 0 1010.5 1010.5 0.0
17/01:30am 13.3 13.3 9.9 80 1.7 CALM 0 0 0 0 1010.7 1010.7 0.0
17/01:00am 13.2 13.3 10.0 81 1.7 CALM 0 0 0 0 1010.9 1010.9 0.0
17/12:30am 12.5 12.5 9.7 83 1.4 CALM 0 0 0 0 1010.9 1010.9 0.0
17/12:00am 12.8 12.0 9.8 82 1.5 NNE 4 6 2 3 1011.2 1011.2 0.0
 
Date/Time
WST
Temp
°C
App
Temp
°C
Dew
Point
Rel
Hum
%
Delta-T
°C
Wind Press
QNH
hPa
Press
MSL
hPa
Rain
since 9 am
mm
Dir
 
Spd
km/h
Gust
km/h
Spd
kts
Gust
kts
16/11:30pm 12.2 11.0 9.4 83 1.4 NE 6 6 3 3 1011.3 1011.3 0.0
16/11:00pm 12.4 11.2 9.4 82 1.5 NE 6 6 3 3 1011.5 1011.5 0.0
16/10:30pm 12.2 11.0 9.4 83 1.4 NE 6 6 3 3 1011.7 1011.7 0.0
16/10:00pm 13.0 11.8 9.6 80 1.7 NE 6 6 3 3 1011.7 1011.7 0.0
16/09:30pm 13.4 12.6 9.5 77 2.0 NE 4 6 2 3 1011.8 1011.8 0.0
16/09:00pm 14.8 13.1 10.0 73 2.5 ESE 9 13 5 7 1011.6 1011.6 0.0
16/08:30pm 15.1 13.1 10.1 72 2.6 ESE 11 17 6 9 1011.4 1011.4 0.0
16/08:00pm 15.1 13.5 10.3 73 2.5 SE 9 15 5 8 1011.4 1011.4 0.0
16/07:30pm 15.2 14.0 10.2 72 2.6 ESE 7 13 4 7 1011.6 1011.6 0.0
16/07:00pm 15.7 14.1 10.2 70 2.9 ESE 9 13 5 7 1011.5 1011.5 0.0
16/06:30pm 16.6 13.4 10.0 65 3.5 SE 17 24 9 13 1011.4 1011.4 0.0
16/06:00pm 17.2 14.1 10.3 64 3.7 SE 17 26 9 14 1011.2 1011.2 0.0
16/05:30pm 17.8 14.1 10.2 61 4.0 SE 20 28 11 15 1011.2 1011.2 0.0
16/05:00pm 18.1 14.5 10.5 61 4.1 SSE 20 30 11 16 1011.2 1011.2 0.0
16/04:30pm 18.1 14.3 8.9 55 4.8 SSE 19 26 10 14 1011.2 1011.2 0.0
16/04:00pm 18.9 15.0 9.4 54 5.0 SSE 20 26 11 14 1011.4 1011.4 0.0
16/03:30pm 18.8 14.7 8.7 52 5.3 SSE 20 30 11 16 1011.6 1011.6 0.0
16/03:00pm 19.6 15.6 9.2 51 5.5 SSE 20 26 11 14 1011.9 1011.9 0.0
16/02:30pm 19.5 15.4 8.5 49 5.7 SSE 20 28 11 15 1012.2 1012.2 0.0
16/02:00pm 19.1 15.0 8.7 51 5.4 S 20 28 11 15 1012.4 1012.4 0.0
16/01:30pm 19.6 15.2 8.9 50 5.6 S 22 28 12 15 1012.6 1012.6 0.0
16/01:00pm 19.9 16.1 9.8 52 5.4 S 20 30 11 16 1012.8 1012.8 0.0
16/12:30pm 19.8 15.8 9.1 50 5.6 S 20 28 11 15 1013.0 1013.0 0.0
16/12:00pm 19.2 15.0 9.7 54 5.0 S 22 30 12 16 1013.3 1013.3 0.0
16/11:30am 19.6 15.9 9.5 52 5.4 S 19 26 10 14 1013.8 1013.8 0.0

Other Formats:

Comma delimited format used in spreadsheet applications
http://www.bom.gov.au/fwo/IDW60801/IDW60801.95635.axf

JavaScript Object Notation format (JSON) in row-major order
http://www.bom.gov.au/fwo/IDW60801/IDW60801.95635.json